createdAt,value
2022-12-25T00:01:07.553Z,100805.52
2022-12-25T00:03:48.830Z,100812.83
2022-12-25T00:06:19.007Z,100823.85
2022-12-25T00:08:47.889Z,100826.84
2022-12-25T00:11:19.040Z,100831.08
2022-12-25T00:13:48.954Z,100832.21
2022-12-25T00:16:20.258Z,100837.95
2022-12-25T00:18:50.602Z,100839.28
2022-12-25T00:21:21.156Z,100842.97
2022-12-25T00:23:54.450Z,100851.35
2022-12-25T00:26:24.754Z,100850.54
2022-12-25T00:28:54.601Z,100847.66
2022-12-25T00:31:24.965Z,100843.91
2022-12-25T00:33:54.005Z,100850.59
2022-12-25T00:36:23.917Z,100858.91
2022-12-25T00:38:52.918Z,100856.97
2022-12-25T00:41:37.586Z,100856.89
2022-12-25T00:44:06.673Z,100858.23
2022-12-25T00:46:35.815Z,100857.98
2022-12-25T00:49:04.814Z,100861.98
2022-12-25T00:51:33.752Z,100859.63
2022-12-25T00:54:02.819Z,100860.21
2022-12-25T00:56:31.677Z,100853.67
2022-12-25T00:59:00.524Z,100853.10
2022-12-25T01:01:29.528Z,100849.57
2022-12-25T01:03:59.747Z,100850.23
2022-12-25T01:06:28.614Z,100856.05
2022-12-25T01:09:16.492Z,100854.00
2022-12-25T01:11:45.656Z,100858.05
2022-12-25T01:14:14.863Z,100857.10
2022-12-25T01:16:43.995Z,100864.32
2022-12-25T01:19:12.996Z,100878.30
2022-12-25T01:21:41.851Z,100884.70
2022-12-25T01:24:10.723Z,100883.95
2022-12-25T01:26:39.630Z,100876.41
2022-12-25T01:29:08.658Z,100875.13
2022-12-25T01:31:37.565Z,100878.21
2022-12-25T01:34:06.402Z,100872.89
2022-12-25T01:36:35.243Z,100867.33
2022-12-25T01:39:04.937Z,100859.27
2022-12-25T01:41:34.297Z,100862.32
2022-12-25T01:44:06.877Z,100869.99
2022-12-25T01:46:36.297Z,100872.98
2022-12-25T01:49:08.031Z,100876.72
2022-12-25T01:51:39.907Z,100868.99
2022-12-25T01:54:12.896Z,100869.77
2022-12-25T01:56:43.820Z,100870.00
2022-12-25T01:59:16.909Z,100872.50
2022-12-25T02:01:46.889Z,100866.64
2022-12-25T02:04:37.944Z,100849.33
2022-12-25T02:07:09.695Z,100845.55
2022-12-25T02:09:38.621Z,100846.59
2022-12-25T02:12:12.302Z,100845.63
2022-12-25T02:14:41.283Z,100846.23
2022-12-25T02:17:19.953Z,100847.30
2022-12-25T02:20:13.574Z,100858.34
2022-12-25T02:22:56.942Z,100868.17
2022-12-25T02:25:43.092Z,100882.70
2022-12-25T02:28:19.871Z,100879.20
2022-12-25T02:30:56.303Z,100878.58
2022-12-25T02:33:50.201Z,100883.63
2022-12-25T02:36:23.245Z,100881.11
2022-12-25T02:39:16.774Z,100875.98
2022-12-25T02:41:48.127Z,100874.84
2022-12-25T02:44:39.087Z,100886.86
2022-12-25T02:47:28.468Z,100890.52
2022-12-25T02:50:17.252Z,100893.59
2022-12-25T02:53:05.911Z,100896.63
2022-12-25T02:56:00.571Z,100901.17
2022-12-25T02:58:48.853Z,100892.67
2022-12-25T03:01:41.512Z,100891.31
2022-12-25T03:04:32.927Z,100900.34
2022-12-25T03:07:07.989Z,100906.14
2022-12-25T03:09:58.729Z,100905.77
2022-12-25T03:12:38.305Z,100906.15
2022-12-25T03:15:28.471Z,100906.16
2022-12-25T03:17:59.220Z,100905.61
2022-12-25T03:20:46.910Z,100923.35
2022-12-25T03:23:38.401Z,100932.17
2022-12-25T03:26:26.763Z,100929.41
2022-12-25T03:28:55.605Z,100936.15
2022-12-25T03:31:32.680Z,100937.08
2022-12-25T03:34:31.451Z,100943.35
2022-12-25T03:37:29.046Z,100947.98
2022-12-25T03:40:39.015Z,100947.83
2022-12-25T03:43:37.595Z,100956.48
2022-12-25T03:46:29.177Z,100972.17
2022-12-25T03:49:23.710Z,100972.33
2022-12-25T03:52:12.633Z,100976.52
2022-12-25T03:55:02.428Z,100969.48
2022-12-25T03:57:53.314Z,100966.42
2022-12-25T04:00:40.578Z,100967.81
2022-12-25T04:03:27.946Z,100958.30
2022-12-25T04:06:15.092Z,100958.79
2022-12-25T04:09:02.230Z,100963.46
2022-12-25T04:11:49.357Z,100964.20
2022-12-25T04:14:36.644Z,100972.19
2022-12-25T04:17:23.850Z,100969.39
2022-12-25T04:20:11.166Z,100976.94
2022-12-25T04:22:58.658Z,100976.86
2022-12-25T04:25:45.717Z,100985.36
2022-12-25T04:28:32.902Z,100992.30
2022-12-25T04:31:20.382Z,100993.35
2022-12-25T04:34:07.541Z,100991.95
2022-12-25T04:36:36.394Z,100987.33
2022-12-25T04:39:05.377Z,100983.55
2022-12-25T04:41:34.355Z,100987.98
2022-12-25T04:44:03.331Z,100990.17
2022-12-25T04:46:32.329Z,100997.85
2022-12-25T04:49:01.278Z,101010.03
2022-12-25T04:51:30.277Z,101012.17
2022-12-25T04:53:59.146Z,101013.52
2022-12-25T04:56:28.334Z,101008.93
2022-12-25T04:58:57.390Z,101011.36
2022-12-25T05:01:26.381Z,101012.92
2022-12-25T05:03:55.381Z,101025.42
2022-12-25T05:06:24.306Z,101021.64
2022-12-25T05:08:53.217Z,101021.59
2022-12-25T05:11:22.445Z,101027.52
2022-12-25T05:13:51.434Z,101028.14
2022-12-25T05:16:21.294Z,101021.36
2022-12-25T05:18:51.238Z,101037.02
2022-12-25T05:21:20.667Z,101045.48
2022-12-25T05:23:51.490Z,101042.44
2022-12-25T05:26:22.523Z,101037.73
2022-12-25T05:28:52.028Z,101046.87
2022-12-25T05:31:21.149Z,101050.36
2022-12-25T05:33:51.194Z,101057.56
2022-12-25T05:36:20.239Z,101058.72
2022-12-25T05:38:50.038Z,101068.40
2022-12-25T05:41:19.553Z,101081.19
2022-12-25T05:43:48.382Z,101088.23
2022-12-25T05:46:17.367Z,101094.70
2022-12-25T05:48:46.207Z,101091.30
2022-12-25T05:51:15.622Z,101097.08
2022-12-25T05:53:44.695Z,101097.58
2022-12-25T05:56:13.692Z,101101.61
2022-12-25T05:58:42.624Z,101106.77
2022-12-25T06:01:13.456Z,101107.03
2022-12-25T06:03:42.547Z,101115.67
2022-12-25T06:06:12.240Z,101117.77
2022-12-25T06:08:41.758Z,101117.98
2022-12-25T06:11:12.353Z,101122.31
2022-12-25T06:13:41.680Z,101123.08
2022-12-25T06:16:12.181Z,101129.54
2022-12-25T06:18:43.596Z,101132.35
2022-12-25T06:21:14.586Z,101146.17
2022-12-25T06:23:44.037Z,101141.77
2022-12-25T06:26:15.250Z,101147.52
2022-12-25T06:28:44.224Z,101150.09
2022-12-25T06:31:16.195Z,101149.98
2022-12-25T06:33:45.748Z,101148.31
2022-12-25T06:36:16.601Z,101153.45
2022-12-25T06:38:45.893Z,101155.32
2022-12-25T06:41:17.191Z,101148.48
2022-12-25T06:43:49.160Z,101149.49
2022-12-25T06:46:18.728Z,101153.77
2022-12-25T06:48:49.005Z,101155.43
2022-12-25T06:51:19.295Z,101147.34
2022-12-25T06:53:48.316Z,101152.50
2022-12-25T06:56:20.673Z,101153.97
2022-12-25T06:58:51.054Z,101167.20
2022-12-25T07:01:23.503Z,101182.27
2022-12-25T07:03:55.437Z,101191.98
2022-12-25T07:06:24.410Z,101202.31
2022-12-25T07:08:53.618Z,101197.70
2022-12-25T07:11:23.256Z,101196.56
2022-12-25T07:13:52.123Z,101189.52
2022-12-25T07:16:21.499Z,101191.84
2022-12-25T07:18:50.512Z,101197.13
2022-12-25T07:21:21.250Z,101192.32
2022-12-25T07:23:50.978Z,101198.00
2022-12-25T07:26:20.466Z,101188.83
2022-12-25T07:28:49.318Z,101193.51
2022-12-25T07:31:19.075Z,101195.86
2022-12-25T07:33:48.157Z,101196.11
2022-12-25T07:36:17.006Z,101195.11
2022-12-25T07:38:49.633Z,101195.98
2022-12-25T07:41:18.640Z,101198.56
2022-12-25T07:43:51.303Z,101197.96
2022-12-25T07:46:21.338Z,101198.61
2022-12-25T07:48:51.213Z,101202.70
2022-12-25T07:51:20.146Z,101210.64
2022-12-25T07:53:49.151Z,101211.49
2022-12-25T07:56:21.129Z,101212.00
2022-12-25T07:58:51.099Z,101219.94
2022-12-25T08:01:22.519Z,101229.29
2022-12-25T08:03:53.052Z,101232.80
2022-12-25T08:06:26.268Z,101228.44
2022-12-25T08:08:55.282Z,101235.27
2022-12-25T08:11:24.144Z,101237.45
2022-12-25T08:13:52.987Z,101239.58
2022-12-25T08:16:22.233Z,101250.89
2022-12-25T08:18:51.198Z,101255.61
2022-12-25T08:21:20.290Z,101250.95
2022-12-25T08:23:49.271Z,101247.94
2022-12-25T08:26:19.931Z,101248.34
2022-12-25T08:28:49.759Z,101240.80
2022-12-25T08:31:21.245Z,101248.58
2022-12-25T08:33:53.059Z,101246.01
2022-12-25T08:36:22.211Z,101249.38
2022-12-25T08:38:53.478Z,101244.25
2022-12-25T08:41:24.465Z,101242.70
2022-12-25T08:43:53.451Z,101244.30
2022-12-25T08:46:22.574Z,101249.16
2022-12-25T08:48:51.525Z,101247.15
2022-12-25T08:51:22.467Z,101250.80
2022-12-25T08:53:52.920Z,101254.11
2022-12-25T08:56:21.965Z,101245.95
2022-12-25T08:58:50.822Z,101246.09
2022-12-25T09:01:19.803Z,101252.14
2022-12-25T09:03:48.731Z,101250.85
2022-12-25T09:06:17.783Z,101259.98
2022-12-25T09:08:49.532Z,101259.58
2022-12-25T09:11:20.100Z,101257.38
2022-12-25T09:13:49.432Z,101263.66
2022-12-25T09:16:20.986Z,101261.14
2022-12-25T09:18:50.720Z,101266.85
2022-12-25T09:21:20.194Z,101271.13
2022-12-25T09:23:49.384Z,101269.02
2022-12-25T09:26:19.690Z,101268.77
2022-12-25T09:28:51.771Z,101259.00
2022-12-25T09:31:22.925Z,101259.30
2022-12-25T09:33:55.517Z,101260.39
2022-12-25T09:36:25.111Z,101268.59
2022-12-25T09:38:54.236Z,101268.83
2022-12-25T09:41:29.831Z,101262.08
2022-12-25T09:44:03.783Z,101268.25
2022-12-25T09:46:41.069Z,101267.55
2022-12-25T09:49:19.622Z,101270.98
2022-12-25T09:51:53.216Z,101275.46
2022-12-25T09:54:39.858Z,101267.11
2022-12-25T09:57:12.165Z,101274.70
2022-12-25T09:59:43.538Z,101275.94
2022-12-25T10:02:42.815Z,101273.61
2022-12-25T10:05:35.710Z,101272.13
2022-12-25T10:08:16.118Z,101270.52
2022-12-25T10:10:58.660Z,101263.89
2022-12-25T10:13:55.383Z,101264.94
2022-12-25T10:16:26.101Z,101267.54
2022-12-25T10:19:09.525Z,101268.77
2022-12-25T10:21:39.331Z,101270.86
2022-12-25T10:24:20.608Z,101266.07
2022-12-25T10:26:51.158Z,101272.88
2022-12-25T10:29:20.656Z,101267.21
2022-12-25T10:31:54.748Z,101259.16
2022-12-25T10:34:24.606Z,101261.48
2022-12-25T10:36:53.488Z,101261.98
2022-12-25T10:39:25.049Z,101261.02
2022-12-25T10:42:28.573Z,101259.74
2022-12-25T10:44:59.885Z,101257.89
2022-12-25T10:47:31.768Z,101245.38
2022-12-25T10:50:01.872Z,101252.19
2022-12-25T10:52:30.831Z,101248.81
2022-12-25T10:55:10.086Z,101254.14
2022-12-25T10:57:46.051Z,101259.55
2022-12-25T11:00:23.478Z,101260.55
2022-12-25T11:02:52.780Z,101257.50
2022-12-25T11:05:28.119Z,101258.14
2022-12-25T11:07:59.502Z,101262.33
2022-12-25T11:10:30.653Z,101263.09
2022-12-25T11:13:00.964Z,101269.15
2022-12-25T11:15:37.673Z,101263.58
2022-12-25T11:18:19.738Z,101273.14
2022-12-25T11:20:54.124Z,101275.13
2022-12-25T11:23:25.192Z,101271.83
2022-12-25T11:25:58.605Z,101272.68
2022-12-25T11:28:29.491Z,101271.21
2022-12-25T11:31:01.085Z,101274.75
2022-12-25T11:33:35.467Z,101276.50
2022-12-25T11:36:13.669Z,101282.02
2022-12-25T11:38:42.582Z,101277.77
2022-12-25T11:41:12.850Z,101277.34
2022-12-25T11:43:46.993Z,101284.40
2022-12-25T11:46:20.513Z,101288.15
2022-12-25T11:48:55.522Z,101285.48
2022-12-25T11:51:28.938Z,101285.63
2022-12-25T11:54:05.593Z,101283.91
2022-12-25T11:56:34.533Z,101283.96
2022-12-25T11:59:07.286Z,101285.07
2022-12-25T12:01:42.909Z,101295.78
2022-12-25T12:04:16.303Z,101298.49
2022-12-25T12:06:54.093Z,101294.20
2022-12-25T12:09:37.233Z,101293.35
2022-12-25T12:12:12.663Z,101288.30
2022-12-25T12:14:49.262Z,101290.14
2022-12-25T12:17:19.583Z,101293.27
2022-12-25T12:19:48.475Z,101294.33
2022-12-25T12:22:21.556Z,101291.70
2022-12-25T12:24:56.179Z,101296.05
2022-12-25T12:27:31.851Z,101298.94
2022-12-25T12:30:01.423Z,101303.21
2022-12-25T12:32:43.066Z,101302.34
2022-12-25T12:35:19.834Z,101302.84
2022-12-25T12:37:52.979Z,101302.48
2022-12-25T12:40:32.581Z,101293.98
2022-12-25T12:43:02.228Z,101305.93
2022-12-25T12:45:34.683Z,101305.40
2022-12-25T12:48:15.483Z,101317.69
2022-12-25T12:50:44.449Z,101317.73
2022-12-25T12:53:29.968Z,101317.78
2022-12-25T12:56:10.353Z,101314.66
2022-12-25T12:58:44.848Z,101320.50
2022-12-25T13:01:29.962Z,101323.30
2022-12-25T13:04:14.559Z,101322.33
2022-12-25T13:06:52.260Z,101326.44
2022-12-25T13:09:35.662Z,101336.65
2022-12-25T13:12:08.611Z,101339.98
2022-12-25T13:14:37.748Z,101341.58
2022-12-25T13:17:08.545Z,101341.83
2022-12-25T13:19:42.209Z,101348.00
2022-12-25T13:22:24.356Z,101355.17
2022-12-25T13:24:58.549Z,101359.79
2022-12-25T13:27:30.492Z,101362.54
2022-12-25T13:29:59.867Z,101363.45
2022-12-25T13:32:31.868Z,101362.42
2022-12-25T13:35:01.305Z,101363.39
2022-12-25T13:37:31.600Z,101364.01
2022-12-25T13:40:03.793Z,101361.20
2022-12-25T13:42:35.624Z,101358.77
2022-12-25T13:45:18.543Z,101360.79
2022-12-25T13:47:53.071Z,101365.63
2022-12-25T13:50:28.087Z,101373.17
2022-12-25T13:53:09.679Z,101375.86
2022-12-25T13:55:40.005Z,101375.29
2022-12-25T13:58:22.947Z,101379.86
2022-12-25T14:00:54.029Z,101378.64
2022-12-25T14:03:33.301Z,101384.95
2022-12-25T14:06:04.477Z,101384.73
2022-12-25T14:08:35.722Z,101393.36
2022-12-25T14:11:06.131Z,101401.63
2022-12-25T14:13:40.129Z,101407.90
2022-12-25T14:16:10.180Z,101412.04
2022-12-25T14:18:49.621Z,101416.73
2022-12-25T14:21:25.523Z,101419.67
2022-12-25T14:23:53.464Z,101423.73
2022-12-25T14:26:24.726Z,101417.52
2022-12-25T14:28:57.511Z,101424.15
2022-12-25T14:31:29.794Z,101427.25
2022-12-25T14:34:00.427Z,101432.23
2022-12-25T14:36:31.005Z,101437.80
2022-12-25T14:39:02.801Z,101444.29
2022-12-25T14:41:37.367Z,101442.77
2022-12-25T14:44:21.294Z,101452.03
2022-12-25T14:46:50.153Z,101454.49
2022-12-25T14:49:24.812Z,101455.35
2022-12-25T14:51:53.747Z,101459.51
2022-12-25T14:54:23.568Z,101463.34
2022-12-25T14:56:55.505Z,101461.61
2022-12-25T14:59:26.754Z,101468.27
2022-12-25T15:01:58.447Z,101474.44
2022-12-25T15:04:28.640Z,101483.27
2022-12-25T15:06:59.837Z,101482.91
2022-12-25T15:09:30.217Z,101487.45
2022-12-25T15:11:59.478Z,101484.08
2022-12-25T15:14:29.577Z,101498.19
2022-12-25T15:17:00.735Z,101507.14
2022-12-25T15:19:37.716Z,101513.41
2022-12-25T15:22:09.469Z,101518.94
2022-12-25T15:24:38.338Z,101515.11
2022-12-25T15:27:15.431Z,101516.12
2022-12-25T15:30:09.253Z,101519.70
2022-12-25T15:32:33.825Z,101520.41
2022-12-25T15:35:02.695Z,101513.09
2022-12-25T15:37:31.643Z,101515.95
2022-12-25T15:40:00.522Z,101521.80
2022-12-25T15:42:29.464Z,101526.73
2022-12-25T15:44:58.289Z,101527.48
2022-12-25T15:47:27.198Z,101532.72
2022-12-25T15:49:56.113Z,101518.12
2022-12-25T15:52:24.945Z,101516.32
2022-12-25T15:54:53.835Z,101513.95
2022-12-25T15:57:23.738Z,101515.41
2022-12-25T15:59:52.701Z,101512.63
2022-12-25T16:02:22.055Z,101517.17
2022-12-25T16:04:53.886Z,101524.31
2022-12-25T16:07:25.252Z,101523.35
2022-12-25T16:09:54.077Z,101529.42
2022-12-25T16:12:22.968Z,101528.42
2022-12-25T16:14:51.884Z,101533.63
2022-12-25T16:17:20.790Z,101529.03
2022-12-25T16:19:49.609Z,101534.83
2022-12-25T16:22:22.230Z,101535.05
2022-12-25T16:24:51.174Z,101536.52
2022-12-25T16:27:20.113Z,101539.09
2022-12-25T16:29:48.934Z,101529.53
2022-12-25T16:32:18.058Z,101536.30
2022-12-25T16:34:49.324Z,101539.73
2022-12-25T16:37:18.257Z,101545.99
2022-12-25T16:39:47.155Z,101545.37
2022-12-25T16:42:16.050Z,101542.57
2022-12-25T16:44:45.092Z,101546.55
2022-12-25T16:47:14.022Z,101549.09
2022-12-25T16:49:43.464Z,101544.83
2022-12-25T16:52:12.293Z,101556.70
2022-12-25T16:54:41.190Z,101555.11
2022-12-25T16:57:10.009Z,101556.52
2022-12-25T16:59:39.061Z,101552.44
2022-12-25T17:02:09.714Z,101556.11
2022-12-25T17:04:38.910Z,101560.20
2022-12-25T17:07:07.802Z,101564.96
2022-12-25T17:09:43.726Z,101564.71
2022-12-25T17:12:13.499Z,101563.05
2022-12-25T17:14:42.612Z,101564.48
2022-12-25T17:17:11.465Z,101574.12
2022-12-25T17:19:41.391Z,101582.23
2022-12-25T17:22:10.436Z,101584.60
2022-12-25T17:24:40.939Z,101585.04
2022-12-25T17:27:10.829Z,101581.70
2022-12-25T17:29:39.780Z,101584.80
2022-12-25T17:32:10.165Z,101590.05
2022-12-25T17:34:39.472Z,101590.08
2022-12-25T17:37:09.017Z,101585.48
2022-12-25T17:39:38.987Z,101585.52
2022-12-25T17:42:07.800Z,101590.55
2022-12-25T17:44:36.650Z,101597.63
2022-12-25T17:47:05.774Z,101606.08
2022-12-25T17:49:35.283Z,101607.42
2022-12-25T17:52:04.338Z,101608.79
2022-12-25T17:54:33.589Z,101615.61
2022-12-25T17:57:02.863Z,101624.77
2022-12-25T17:59:31.817Z,101627.84
2022-12-25T18:02:00.786Z,101629.77
2022-12-25T18:04:29.880Z,101628.34
2022-12-25T18:06:58.838Z,101624.91
2022-12-25T18:09:27.657Z,101624.79
2022-12-25T18:11:56.998Z,101627.09
2022-12-25T18:14:25.846Z,101624.56
2022-12-25T18:16:54.861Z,101629.52
2022-12-25T18:19:23.707Z,101627.81
2022-12-25T18:21:52.516Z,101631.75
2022-12-25T18:24:21.436Z,101630.00
2022-12-25T18:26:50.339Z,101626.38
2022-12-25T18:29:19.196Z,101628.60
2022-12-25T18:31:48.330Z,101627.06
2022-12-25T18:34:17.529Z,101625.41
2022-12-25T18:36:46.420Z,101623.70
2022-12-25T18:39:15.369Z,101628.83
2022-12-25T18:41:58.765Z,101629.23
2022-12-25T18:44:29.000Z,101634.03
2022-12-25T18:46:57.849Z,101632.81
2022-12-25T18:49:26.988Z,101637.10
2022-12-25T18:52:47.928Z,101639.73
2022-12-25T18:54:44.940Z,101644.10
2022-12-25T18:57:14.005Z,101648.42
2022-12-25T18:59:42.832Z,101648.94
2022-12-25T19:02:12.942Z,101647.91
2022-12-25T19:04:42.948Z,101643.54
2022-12-25T19:07:12.354Z,101631.56
2022-12-25T19:09:41.332Z,101629.14
2022-12-25T19:12:10.294Z,101630.85
2022-12-25T19:14:47.011Z,101637.55
2022-12-25T19:17:17.937Z,101645.48
2022-12-25T19:19:47.304Z,101640.99
2022-12-25T19:22:16.712Z,101641.27
2022-12-25T19:24:45.810Z,101642.80
2022-12-25T19:27:14.649Z,101649.25
2022-12-25T19:29:43.493Z,101657.52
2022-12-25T19:32:12.519Z,101664.45
2022-12-25T19:34:41.374Z,101675.00
2022-12-25T19:37:10.273Z,101682.64
2022-12-25T19:39:45.335Z,101679.86
2022-12-25T19:42:15.965Z,101681.84
2022-12-25T19:44:45.115Z,101685.16
2022-12-25T19:47:14.001Z,101687.17
2022-12-25T19:49:43.938Z,101690.27
2022-12-25T19:52:14.523Z,101692.27
2022-12-25T19:54:43.399Z,101693.52
2022-12-25T19:57:12.265Z,101696.30
2022-12-25T19:59:41.347Z,101691.66
2022-12-25T20:02:11.329Z,101690.79
2022-12-25T20:04:40.494Z,101695.27
2022-12-25T20:07:09.319Z,101700.60
2022-12-25T20:09:38.287Z,101702.46
2022-12-25T20:12:09.760Z,101696.52
2022-12-25T20:14:38.606Z,101700.35
2022-12-25T20:17:13.657Z,101698.69
2022-12-25T20:19:44.754Z,101706.38
2022-12-25T20:22:13.558Z,101714.67
2022-12-25T20:24:42.577Z,101712.59
2022-12-25T20:27:11.419Z,101707.18
2022-12-25T20:29:40.217Z,101709.95
2022-12-25T20:32:09.305Z,101708.15
2022-12-25T20:34:38.315Z,101711.98
2022-12-25T20:37:07.135Z,101720.02
2022-12-25T20:39:36.041Z,101724.23
2022-12-25T20:42:05.620Z,101719.08
2022-12-25T20:44:34.601Z,101722.68
2022-12-25T20:47:03.467Z,101739.50
2022-12-25T20:49:34.022Z,101746.30
2022-12-25T20:52:05.763Z,101751.80
2022-12-25T20:54:35.088Z,101744.73
2022-12-25T20:57:04.129Z,101740.42
2022-12-25T20:59:37.451Z,101741.73
2022-12-25T21:02:09.664Z,101741.30
2022-12-25T21:04:58.479Z,101740.57
2022-12-25T21:07:27.393Z,101745.39
2022-12-25T21:09:56.222Z,101748.16
2022-12-25T21:12:25.252Z,101740.11
2022-12-25T21:14:54.185Z,101734.14
2022-12-25T21:17:23.023Z,101726.02
2022-12-25T21:19:51.890Z,101728.77
2022-12-25T21:22:20.849Z,101737.48
2022-12-25T21:24:51.449Z,101738.36
2022-12-25T21:27:20.279Z,101742.06
2022-12-25T21:29:49.136Z,101738.77
2022-12-25T21:32:36.345Z,101736.86
2022-12-25T21:35:06.151Z,101729.98
2022-12-25T21:37:35.091Z,101732.60
2022-12-25T21:40:04.645Z,101740.88
2022-12-25T21:42:33.476Z,101742.00
2022-12-25T21:45:02.452Z,101738.80
2022-12-25T21:48:01.582Z,101732.13
2022-12-25T21:50:39.497Z,101729.98
2022-12-25T21:53:08.676Z,101728.92
2022-12-25T21:55:37.508Z,101736.54
2022-12-25T21:58:06.343Z,101730.61
2022-12-25T22:00:35.285Z,101720.98
2022-12-25T22:03:04.530Z,101719.52
2022-12-25T22:05:54.631Z,101724.64
2022-12-25T22:08:23.443Z,101731.53
2022-12-25T22:10:52.355Z,101730.86
2022-12-25T22:13:39.604Z,101742.89
2022-12-25T22:16:26.859Z,101737.56
2022-12-25T22:19:14.035Z,101736.42
2022-12-25T22:21:43.060Z,101743.56
2022-12-25T22:24:11.893Z,101749.03
2022-12-25T22:26:43.692Z,101752.77
2022-12-25T22:29:12.498Z,101752.61
2022-12-25T22:31:46.754Z,101753.55
2022-12-25T22:34:16.858Z,101757.83
2022-12-25T22:36:47.342Z,101765.23
2022-12-25T22:39:16.474Z,101763.88
2022-12-25T22:41:45.298Z,101764.98
2022-12-25T22:44:17.584Z,101769.94
2022-12-25T22:46:47.123Z,101772.48
2022-12-25T22:49:16.320Z,101769.41
2022-12-25T22:51:45.828Z,101767.27
2022-12-25T22:54:15.721Z,101777.14
2022-12-25T22:56:46.352Z,101785.17
2022-12-25T22:59:16.908Z,101786.91
2022-12-25T23:01:45.988Z,101787.60
2022-12-25T23:04:14.990Z,101789.44
2022-12-25T23:06:43.984Z,101788.80
2022-12-25T23:09:20.553Z,101793.92
2022-12-25T23:11:53.286Z,101795.39
2022-12-25T23:14:40.424Z,101797.59
2022-12-25T23:17:27.397Z,101802.41
2022-12-25T23:20:14.754Z,101795.43
2022-12-25T23:23:04.076Z,101796.42
2022-12-25T23:26:00.956Z,101796.02
2022-12-25T23:28:46.827Z,101808.38
2022-12-25T23:31:15.896Z,101812.63
2022-12-25T23:33:44.737Z,101809.26
2022-12-25T23:36:13.576Z,101814.27
2022-12-25T23:38:42.397Z,101815.18
2022-12-25T23:41:11.377Z,101824.38
2022-12-25T23:43:40.217Z,101826.38
2022-12-25T23:46:09.174Z,101823.09
2022-12-25T23:48:38.039Z,101823.27
2022-12-25T23:51:08.155Z,101826.04
2022-12-25T23:53:37.034Z,101831.85
2022-12-25T23:56:06.790Z,101834.52
2022-12-25T23:58:35.803Z,101840.17
